This is the latest recevied weather packets stored in our database for station/object CA3DPI. If no packets are shown the sender has not sent any weather packets the latest 10 day(s).
| Time | Temp. | Humidity | Pressure | Rain* | Wind** | Luminosity | Snow |
|---|---|---|---|---|---|---|---|
| 1777160101 | 18.33° C | 38% | 1023.3 hPa | - | - | - | - |
| 1777159500 | 18.33° C | 37% | 1023.3 hPa | - | - | - | - |
| 1777158900 | 18.33° C | 38% | 1023.3 hPa | - | - | - | - |
| 1777158300 | 17.78° C | 37% | 1023.3 hPa | - | - | - | - |
| 1777157699 | 16.67° C | 40% | 1023.1 hPa | - | - | - | - |
| 1777155658 | 21.67° C | 37% | 1022.8 hPa | - | - | - | - |
| 1777155058 | 22.22° C | 36% | 1022.7 hPa | - | - | - | - |
| 1777154457 | 23.33° C | 35% | 1022.5 hPa | - | - | - | - |
| 1777153857 | 24.44° C | 35% | 1022.6 hPa | - | - | - | - |
| 1777153256 | 22.78° C | 36% | 1022.7 hPa | - | - | - | - |
| 1777146549 | 26.11° C | 35% | 1022.8 hPa | - | - | - | - |
| 1777141131 | 31.67° C | 29% | 1022.9 hPa | - | - | - | - |
| 1777140530 | 31.67° C | 29% | 1022.9 hPa | - | - | - | - |
| 1777139930 | 32.22° C | 25% | 1022.6 hPa | - | - | - | - |
| 1777139330 | 31.67° C | 26% | 1022.7 hPa | - | - | - | - |
| 1777138732 | 32.22° C | 29% | 1022.7 hPa | - | - | - | - |
| 1777138130 | 32.22° C | 26% | 1022.8 hPa | - | - | - | - |
| 1777137529 | 32.22° C | 25% | 1022.9 hPa | - | - | - | - |
| 1777136929 | 31.67° C | 26% | 1023 hPa | - | - | - | - |
| 1777136329 | 32.22° C | 25% | 1022.9 hPa | - | - | - | - |
| 1777135729 | 31.67° C | 25% | 1022.9 hPa | - | - | - | - |
| 1777135129 | 30.56° C | 26% | 1023.1 hPa | - | - | - | - |
| 1777134529 | 30° C | 27% | 1023 hPa | - | - | - | - |
| 1777133928 | 29.44° C | 30% | 1023.1 hPa | - | - | - | - |
| 1777133328 | 29.44° C | 28% | 1023.2 hPa | - | - | - | - |
* Rain since midnight (hover to see other rain measurements)
** Current wind speed in m/s (hover to see current wind gust speed)